sensor_id;sensor_type;location;lat;lon;timestamp;pressure;altitude;pressure_sealevel;temperature;humidity
12949;BME280;6539;49.476;8.484;2023-02-16T00:00:45;101728.56;;;3.13;80.33
12949;BME280;6539;49.476;8.484;2023-02-16T00:03:20;101724.25;;;3.21;80.06
12949;BME280;6539;49.476;8.484;2023-02-16T00:05:49;101716.59;;;3.23;80.17
12949;BME280;6539;49.476;8.484;2023-02-16T00:08:15;101718.56;;;2.96;80.92
12949;BME280;6539;49.476;8.484;2023-02-16T00:10:41;101704.19;;;2.96;81.18
12949;BME280;6539;49.476;8.484;2023-02-16T00:13:30;101707.59;;;2.76;82.84
12949;BME280;6539;49.476;8.484;2023-02-16T00:16:21;101701.00;;;2.85;83.67
12949;BME280;6539;49.476;8.484;2023-02-16T00:18:51;101705.16;;;2.91;83.07
12949;BME280;6539;49.476;8.484;2023-02-16T00:21:18;101700.84;;;2.99;83.31
12949;BME280;6539;49.476;8.484;2023-02-16T00:23:49;101713.63;;;2.90;83.07
12949;BME280;6539;49.476;8.484;2023-02-16T00:26:24;101716.00;;;2.91;82.85
12949;BME280;6539;49.476;8.484;2023-02-16T00:28:54;101718.72;;;2.83;83.41
12949;BME280;6539;49.476;8.484;2023-02-16T00:31:24;101721.91;;;2.85;83.26
12949;BME280;6539;49.476;8.484;2023-02-16T00:33:57;101724.47;;;2.81;83.23
12949;BME280;6539;49.476;8.484;2023-02-16T00:36:28;101718.91;;;2.86;83.35
12949;BME280;6539;49.476;8.484;2023-02-16T00:38:56;101719.81;;;2.99;83.01
12949;BME280;6539;49.476;8.484;2023-02-16T00:41:24;101714.38;;;3.07;81.48
12949;BME280;6539;49.476;8.484;2023-02-16T00:44:28;101718.22;;;3.06;79.80
12949;BME280;6539;49.476;8.484;2023-02-16T00:46:54;101730.34;;;3.00;80.47
12949;BME280;6539;49.476;8.484;2023-02-16T00:49:22;101725.75;;;2.92;80.68
12949;BME280;6539;49.476;8.484;2023-02-16T00:51:51;101725.91;;;2.87;80.41
12949;BME280;6539;49.476;8.484;2023-02-16T00:54:20;101718.41;;;2.84;80.58
12949;BME280;6539;49.476;8.484;2023-02-16T00:56:46;101721.75;;;2.81;80.92
12949;BME280;6539;49.476;8.484;2023-02-16T00:59:19;101720.78;;;2.94;80.58
12949;BME280;6539;49.476;8.484;2023-02-16T01:01:48;101716.78;;;2.92;80.12
12949;BME280;6539;49.476;8.484;2023-02-16T01:04:21;101709.16;;;2.77;79.91
12949;BME280;6539;49.476;8.484;2023-02-16T01:06:47;101715.88;;;2.71;80.32
12949;BME280;6539;49.476;8.484;2023-02-16T01:09:32;101723.34;;;2.65;80.66
12949;BME280;6539;49.476;8.484;2023-02-16T01:12:18;101725.59;;;2.63;81.26
12949;BME280;6539;49.476;8.484;2023-02-16T01:14:51;101728.28;;;2.55;81.68
12949;BME280;6539;49.476;8.484;2023-02-16T01:17:23;101724.97;;;2.58;81.69
12949;BME280;6539;49.476;8.484;2023-02-16T01:19:51;101709.31;;;2.46;81.30
12949;BME280;6539;49.476;8.484;2023-02-16T01:22:17;101704.22;;;2.53;81.30
12949;BME280;6539;49.476;8.484;2023-02-16T01:24:45;101720.50;;;2.53;81.63
12949;BME280;6539;49.476;8.484;2023-02-16T01:27:12;101718.44;;;2.50;81.75
12949;BME280;6539;49.476;8.484;2023-02-16T01:29:38;101724.47;;;2.47;81.83
12949;BME280;6539;49.476;8.484;2023-02-16T01:32:09;101717.78;;;2.45;82.86
12949;BME280;6539;49.476;8.484;2023-02-16T01:34:43;101722.09;;;2.54;83.13
12949;BME280;6539;49.476;8.484;2023-02-16T01:37:14;101713.50;;;2.52;82.06
12949;BME280;6539;49.476;8.484;2023-02-16T01:39:43;101715.72;;;2.67;82.20
12949;BME280;6539;49.476;8.484;2023-02-16T02:06:03;101695.75;;;2.38;81.77
12949;BME280;6539;49.476;8.484;2023-02-16T02:09:55;101678.88;;;2.41;82.56
12949;BME280;6539;49.476;8.484;2023-02-16T02:12:35;101681.75;;;2.44;82.20
12949;BME280;6539;49.476;8.484;2023-02-16T02:15:38;101670.75;;;2.49;82.01
12949;BME280;6539;49.476;8.484;2023-02-16T02:18:30;101671.56;;;2.58;82.07
12949;BME280;6539;49.476;8.484;2023-02-16T02:27:37;101669.63;;;2.42;83.38
12949;BME280;6539;49.476;8.484;2023-02-16T03:35:14;101685.41;;;2.31;84.17
12949;BME280;6539;49.476;8.484;2023-02-16T03:41:54;101682.06;;;2.43;84.38
12949;BME280;6539;49.476;8.484;2023-02-16T03:44:41;101674.88;;;2.47;83.62
12949;BME280;6539;49.476;8.484;2023-02-16T03:47:33;101676.78;;;2.46;84.04
12949;BME280;6539;49.476;8.484;2023-02-16T03:49:58;101683.81;;;2.47;83.93
12949;BME280;6539;49.476;8.484;2023-02-16T03:52:26;101684.44;;;2.44;84.25
12949;BME280;6539;49.476;8.484;2023-02-16T03:54:54;101676.31;;;2.53;84.19
12949;BME280;6539;49.476;8.484;2023-02-16T03:57:20;101680.31;;;2.55;84.31
12949;BME280;6539;49.476;8.484;2023-02-16T03:59:48;101685.91;;;2.50;85.00
12949;BME280;6539;49.476;8.484;2023-02-16T04:02:17;101679.19;;;2.65;84.41
12949;BME280;6539;49.476;8.484;2023-02-16T04:04:48;101674.56;;;2.65;84.53
12949;BME280;6539;49.476;8.484;2023-02-16T04:07:16;101678.88;;;2.66;84.79
12949;BME280;6539;49.476;8.484;2023-02-16T04:09:42;101670.09;;;2.78;83.95
12949;BME280;6539;49.476;8.484;2023-02-16T04:12:12;101679.69;;;2.58;84.00
12949;BME280;6539;49.476;8.484;2023-02-16T04:14:57;101681.25;;;2.59;84.43
12949;BME280;6539;49.476;8.484;2023-02-16T04:17:23;101685.91;;;2.59;84.74
12949;BME280;6539;49.476;8.484;2023-02-16T04:19:55;101684.44;;;2.61;85.03
12949;BME280;6539;49.476;8.484;2023-02-16T04:22:29;101683.19;;;2.67;85.33
12949;BME280;6539;49.476;8.484;2023-02-16T04:24:57;101677.09;;;2.70;85.27
12949;BME280;6539;49.476;8.484;2023-02-16T04:27:27;101683.97;;;2.59;85.07
12949;BME280;6539;49.476;8.484;2023-02-16T04:29:55;101689.72;;;2.58;85.28
12949;BME280;6539;49.476;8.484;2023-02-16T04:32:21;101689.56;;;2.46;86.42
12949;BME280;6539;49.476;8.484;2023-02-16T04:34:54;101673.78;;;2.56;86.21
12949;BME280;6539;49.476;8.484;2023-02-16T04:37:19;101675.06;;;2.59;86.46
12949;BME280;6539;49.476;8.484;2023-02-16T04:39:48;101668.03;;;2.58;86.00
12949;BME280;6539;49.476;8.484;2023-02-16T04:42:16;101678.88;;;2.66;86.57
12949;BME280;6539;49.476;8.484;2023-02-16T04:44:42;101680.28;;;2.72;85.78
12949;BME280;6539;49.476;8.484;2023-02-16T04:47:10;101677.44;;;2.60;86.72
12949;BME280;6539;49.476;8.484;2023-02-16T04:49:36;101678.72;;;2.71;86.37
12949;BME280;6539;49.476;8.484;2023-02-16T04:52:04;101685.91;;;2.67;87.09
12949;BME280;6539;49.476;8.484;2023-02-16T04:54:32;101672.63;;;2.74;87.09
12949;BME280;6539;49.476;8.484;2023-02-16T04:57:03;101670.41;;;2.76;86.92
12949;BME280;6539;49.476;8.484;2023-02-16T04:59:29;101677.09;;;2.79;87.06
12949;BME280;6539;49.476;8.484;2023-02-16T05:01:58;101671.69;;;2.79;87.32
12949;BME280;6539;49.476;8.484;2023-02-16T05:04:24;101679.50;;;2.89;87.36
12949;BME280;6539;49.476;8.484;2023-02-16T05:06:59;101678.66;;;2.97;86.46
12949;BME280;6539;49.476;8.484;2023-02-16T05:09:30;101673.75;;;2.90;86.03
12949;BME280;6539;49.476;8.484;2023-02-16T05:11:58;101673.25;;;2.88;86.33
12949;BME280;6539;49.476;8.484;2023-02-16T05:14:45;101668.63;;;2.80;86.69
12949;BME280;6539;49.476;8.484;2023-02-16T05:17:14;101668.47;;;2.85;86.69
12949;BME280;6539;49.476;8.484;2023-02-16T05:19:49;101662.44;;;2.80;87.82
12949;BME280;6539;49.476;8.484;2023-02-16T05:22:53;101678.97;;;2.95;87.52
12949;BME280;6539;49.476;8.484;2023-02-16T05:25:36;101665.94;;;2.89;87.04
12949;BME280;6539;49.476;8.484;2023-02-16T05:28:04;101674.81;;;2.98;87.51
12949;BME280;6539;49.476;8.484;2023-02-16T05:30:40;101677.72;;;3.01;87.06
12949;BME280;6539;49.476;8.484;2023-02-16T05:33:14;101669.09;;;2.99;86.53
12949;BME280;6539;49.476;8.484;2023-02-16T05:35:40;101679.94;;;2.99;86.50
12949;BME280;6539;49.476;8.484;2023-02-16T05:38:05;101674.22;;;2.92;86.64
12949;BME280;6539;49.476;8.484;2023-02-16T05:40:37;101677.56;;;2.81;87.22
12949;BME280;6539;49.476;8.484;2023-02-16T05:43:19;101675.19;;;2.79;87.71
12949;BME280;6539;49.476;8.484;2023-02-16T05:46:23;101683.44;;;2.91;87.98
12949;BME280;6539;49.476;8.484;2023-02-16T06:06:37;101690.59;;;3.04;87.69
12949;BME280;6539;49.476;8.484;2023-02-16T06:17:27;101688.78;;;3.34;88.71
12949;BME280;6539;49.476;8.484;2023-02-16T06:20:02;101691.78;;;3.41;87.25
12949;BME280;6539;49.476;8.484;2023-02-16T06:22:28;101688.31;;;3.24;86.41
12949;BME280;6539;49.476;8.484;2023-02-16T06:28:55;101696.34;;;3.12;87.38
12949;BME280;6539;49.476;8.484;2023-02-16T06:31:21;101697.16;;;3.12;87.44
12949;BME280;6539;49.476;8.484;2023-02-16T06:34:51;101708.97;;;3.07;87.41
12949;BME280;6539;49.476;8.484;2023-02-16T06:52:00;101730.50;;;2.95;88.23
12949;BME280;6539;49.476;8.484;2023-02-16T06:54:46;101727.63;;;3.00;89.20
12949;BME280;6539;49.476;8.484;2023-02-16T06:57:14;101727.97;;;2.99;88.97
12949;BME280;6539;49.476;8.484;2023-02-16T06:59:42;101732.59;;;2.98;89.27
12949;BME280;6539;49.476;8.484;2023-02-16T07:02:16;101734.66;;;3.01;89.19
12949;BME280;6539;49.476;8.484;2023-02-16T07:04:44;101728.44;;;3.01;89.58
12949;BME280;6539;49.476;8.484;2023-02-16T07:07:10;101727.63;;;3.09;90.01
12949;BME280;6539;49.476;8.484;2023-02-16T07:09:40;101729.03;;;3.15;89.45
12949;BME280;6539;49.476;8.484;2023-02-16T07:12:06;101729.00;;;3.24;88.69
12949;BME280;6539;49.476;8.484;2023-02-16T07:14:37;101736.41;;;3.15;88.36
12949;BME280;6539;49.476;8.484;2023-02-16T07:17:06;101734.63;;;3.19;88.54
12949;BME280;6539;49.476;8.484;2023-02-16T07:19:31;101737.34;;;3.19;88.38
12949;BME280;6539;49.476;8.484;2023-02-16T07:22:02;101743.41;;;3.16;88.17
12949;BME280;6539;49.476;8.484;2023-02-16T07:24:30;101739.72;;;3.20;88.60
12949;BME280;6539;49.476;8.484;2023-02-16T07:26:55;101740.72;;;3.07;88.79
12949;BME280;6539;49.476;8.484;2023-02-16T07:29:21;101732.91;;;3.05;89.22
12949;BME280;6539;49.476;8.484;2023-02-16T07:31:48;101735.28;;;3.07;89.42
12949;BME280;6539;49.476;8.484;2023-02-16T07:34:17;101737.38;;;3.10;89.22
12949;BME280;6539;49.476;8.484;2023-02-16T07:36:43;101738.94;;;3.20;89.58
12949;BME280;6539;49.476;8.484;2023-02-16T07:39:10;101729.31;;;3.31;89.54
12949;BME280;6539;49.476;8.484;2023-02-16T07:41:36;101735.22;;;3.33;88.69
12949;BME280;6539;49.476;8.484;2023-02-16T07:44:04;101738.25;;;3.40;88.67
12949;BME280;6539;49.476;8.484;2023-02-16T07:46:30;101729.94;;;3.45;88.53
12949;BME280;6539;49.476;8.484;2023-02-16T07:48:56;101718.88;;;3.50;88.12
12949;BME280;6539;49.476;8.484;2023-02-16T07:51:24;101723.34;;;3.54;88.35
12949;BME280;6539;49.476;8.484;2023-02-16T07:53:50;101719.81;;;3.54;87.90
12949;BME280;6539;49.476;8.484;2023-02-16T07:56:27;101728.78;;;3.54;87.97
12949;BME280;6539;49.476;8.484;2023-02-16T07:58:58;101725.13;;;3.50;88.36
12949;BME280;6539;49.476;8.484;2023-02-16T08:01:28;101722.38;;;3.59;87.92
12949;BME280;6539;49.476;8.484;2023-02-16T08:03:58;101727.19;;;3.53;87.41
12949;BME280;6539;49.476;8.484;2023-02-16T08:06:24;101736.88;;;3.63;87.63
12949;BME280;6539;49.476;8.484;2023-02-16T08:08:53;101734.00;;;3.68;87.92
12949;BME280;6539;49.476;8.484;2023-02-16T08:11:22;101752.03;;;3.72;86.81
12949;BME280;6539;49.476;8.484;2023-02-16T08:13:52;101738.13;;;3.74;86.35
12949;BME280;6539;49.476;8.484;2023-02-16T08:16:29;101748.97;;;3.74;85.82
12949;BME280;6539;49.476;8.484;2023-02-16T08:18:59;101740.84;;;3.74;85.79
12949;BME280;6539;49.476;8.484;2023-02-16T08:21:33;101746.16;;;3.62;85.54
12949;BME280;6539;49.476;8.484;2023-02-16T08:24:10;101738.25;;;3.40;86.60
12949;BME280;6539;49.476;8.484;2023-02-16T08:26:42;101736.63;;;3.39;86.79
12949;BME280;6539;49.476;8.484;2023-02-16T08:29:12;101742.75;;;3.27;87.23
12949;BME280;6539;49.476;8.484;2023-02-16T08:31:43;101740.69;;;3.24;87.54
12949;BME280;6539;49.476;8.484;2023-02-16T08:34:18;101740.03;;;3.27;87.95
12949;BME280;6539;49.476;8.484;2023-02-16T08:36:55;101738.13;;;3.28;88.01
12949;BME280;6539;49.476;8.484;2023-02-16T08:39:25;101736.38;;;3.32;88.40
12949;BME280;6539;49.476;8.484;2023-02-16T08:41:55;101735.06;;;3.38;87.73
12949;BME280;6539;49.476;8.484;2023-02-16T08:44:25;101739.66;;;3.46;87.73
12949;BME280;6539;49.476;8.484;2023-02-16T08:46:58;101742.34;;;3.54;87.48
12949;BME280;6539;49.476;8.484;2023-02-16T08:49:27;101730.47;;;3.67;86.98
12949;BME280;6539;49.476;8.484;2023-02-16T08:51:58;101739.91;;;3.70;86.51
12949;BME280;6539;49.476;8.484;2023-02-16T08:54:28;101747.53;;;3.76;86.57
12949;BME280;6539;49.476;8.484;2023-02-16T08:56:56;101740.47;;;3.84;86.14
12949;BME280;6539;49.476;8.484;2023-02-16T08:59:26;101733.78;;;3.81;85.57
12949;BME280;6539;49.476;8.484;2023-02-16T09:01:53;101744.16;;;3.88;86.08
12949;BME280;6539;49.476;8.484;2023-02-16T09:04:19;101743.44;;;4.00;85.16
12949;BME280;6539;49.476;8.484;2023-02-16T09:06:49;101737.41;;;3.94;84.52
12949;BME280;6539;49.476;8.484;2023-02-16T09:09:17;101737.34;;;4.03;84.42
12949;BME280;6539;49.476;8.484;2023-02-16T09:11:44;101740.16;;;4.15;83.70
12949;BME280;6539;49.476;8.484;2023-02-16T09:14:15;101758.81;;;4.16;83.59
12949;BME280;6539;49.476;8.484;2023-02-16T09:16:44;101756.59;;;4.18;82.30
12949;BME280;6539;49.476;8.484;2023-02-16T09:19:16;101753.59;;;4.11;83.16
12949;BME280;6539;49.476;8.484;2023-02-16T09:21:43;101755.00;;;4.17;83.19
12949;BME280;6539;49.476;8.484;2023-02-16T09:24:10;101751.47;;;4.17;83.08
12949;BME280;6539;49.476;8.484;2023-02-16T09:26:38;101753.50;;;4.28;83.10
12949;BME280;6539;49.476;8.484;2023-02-16T09:29:11;101744.31;;;4.41;82.69
12949;BME280;6539;49.476;8.484;2023-02-16T09:31:42;101745.56;;;4.64;81.75
12949;BME280;6539;49.476;8.484;2023-02-16T09:34:20;101741.03;;;4.89;81.58
12949;BME280;6539;49.476;8.484;2023-02-16T09:36:46;101748.81;;;5.11;80.01
12949;BME280;6539;49.476;8.484;2023-02-16T09:39:14;101751.81;;;5.30;78.99
12949;BME280;6539;49.476;8.484;2023-02-16T09:44:52;101744.59;;;6.03;78.43
12949;BME280;6539;49.476;8.484;2023-02-16T09:47:30;101747.09;;;7.00;72.19
12949;BME280;6539;49.476;8.484;2023-02-16T09:50:05;101738.38;;;7.85;69.08
12949;BME280;6539;49.476;8.484;2023-02-16T09:52:56;101739.81;;;8.83;65.05
12949;BME280;6539;49.476;8.484;2023-02-16T09:55:27;101732.25;;;8.95;63.50
12949;BME280;6539;49.476;8.484;2023-02-16T09:58:21;101738.56;;;9.60;63.03
12949;BME280;6539;49.476;8.484;2023-02-16T10:00:57;101732.00;;;10.14;60.21
12949;BME280;6539;49.476;8.484;2023-02-16T10:03:56;101722.63;;;10.74;57.47
12949;BME280;6539;49.476;8.484;2023-02-16T10:09:27;101718.56;;;11.31;55.37
12949;BME280;6539;49.476;8.484;2023-02-16T10:12:05;101718.56;;;11.68;53.44
12949;BME280;6539;49.476;8.484;2023-02-16T10:14:53;101711.59;;;11.81;52.97
12949;BME280;6539;49.476;8.484;2023-02-16T10:20:18;101715.44;;;12.27;52.55
12949;BME280;6539;49.476;8.484;2023-02-16T10:22:51;101713.69;;;12.66;51.93
12949;BME280;6539;49.476;8.484;2023-02-16T10:25:55;101713.31;;;12.68;51.07
12949;BME280;6539;49.476;8.484;2023-02-16T10:33:59;101725.00;;;12.47;50.62
12949;BME280;6539;49.476;8.484;2023-02-16T10:45:54;101704.81;;;13.08;49.63
12949;BME280;6539;49.476;8.484;2023-02-16T10:48:22;101706.00;;;13.11;49.61
12949;BME280;6539;49.476;8.484;2023-02-16T10:53:28;101693.03;;;13.32;48.83
12949;BME280;6539;49.476;8.484;2023-02-16T10:55:59;101687.13;;;13.30;48.92
12949;BME280;6539;49.476;8.484;2023-02-16T10:58:38;101685.63;;;12.40;50.81
12949;BME280;6539;49.476;8.484;2023-02-16T11:01:21;101685.41;;;12.04;52.50
12949;BME280;6539;49.476;8.484;2023-02-16T11:03:56;101673.06;;;11.84;53.28
12949;BME280;6539;49.476;8.484;2023-02-16T11:06:24;101679.09;;;12.00;53.71
12949;BME280;6539;49.476;8.484;2023-02-16T11:08:56;101676.13;;;12.27;53.14
12949;BME280;6539;49.476;8.484;2023-02-16T11:11:36;101668.75;;;12.55;52.26
12949;BME280;6539;49.476;8.484;2023-02-16T11:14:06;101666.78;;;12.56;52.31
12949;BME280;6539;49.476;8.484;2023-02-16T11:16:36;101658.69;;;12.08;53.48
12949;BME280;6539;49.476;8.484;2023-02-16T11:19:18;101657.13;;;12.07;53.34
12949;BME280;6539;49.476;8.484;2023-02-16T11:21:52;101656.63;;;11.91;53.87
12949;BME280;6539;49.476;8.484;2023-02-16T11:27:22;101646.50;;;12.06;54.13
12949;BME280;6539;49.476;8.484;2023-02-16T11:30:17;101651.47;;;11.86;54.74
12949;BME280;6539;49.476;8.484;2023-02-16T11:32:51;101640.44;;;11.79;55.07
12949;BME280;6539;49.476;8.484;2023-02-16T11:35:17;101633.81;;;11.87;54.74
12949;BME280;6539;49.476;8.484;2023-02-16T11:37:48;101630.53;;;11.68;54.80
12949;BME280;6539;49.476;8.484;2023-02-16T11:40:28;101628.31;;;11.40;55.92
12949;BME280;6539;49.476;8.484;2023-02-16T11:42:59;101622.97;;;11.14;56.98
12949;BME280;6539;49.476;8.484;2023-02-16T11:45:32;101607.53;;;10.99;57.64
12949;BME280;6539;49.476;8.484;2023-02-16T11:50:33;101594.50;;;10.89;58.69
12949;BME280;6539;49.476;8.484;2023-02-16T11:55:41;101595.09;;;11.15;58.57
12949;BME280;6539;49.476;8.484;2023-02-16T12:07:13;101590.94;;;11.83;56.59
12949;BME280;6539;49.476;8.484;2023-02-16T12:10:20;101590.13;;;11.79;56.59
12949;BME280;6539;49.476;8.484;2023-02-16T12:13:03;101585.06;;;11.88;56.51
12949;BME280;6539;49.476;8.484;2023-02-16T12:21:49;101581.88;;;11.79;56.92
12949;BME280;6539;49.476;8.484;2023-02-16T12:33:40;101562.78;;;11.49;58.38
12949;BME280;6539;49.476;8.484;2023-02-16T12:43:01;101548.22;;;11.45;58.78
12949;BME280;6539;49.476;8.484;2023-02-16T12:45:35;101555.00;;;11.62;58.92
12949;BME280;6539;49.476;8.484;2023-02-16T12:50:54;101542.56;;;11.82;57.89
12949;BME280;6539;49.476;8.484;2023-02-16T12:53:37;101537.84;;;11.82;58.36
12949;BME280;6539;49.476;8.484;2023-02-16T12:56:13;101535.16;;;11.89;58.06
12949;BME280;6539;49.476;8.484;2023-02-16T12:58:45;101536.38;;;11.99;57.91
12949;BME280;6539;49.476;8.484;2023-02-16T13:01:24;101533.22;;;12.00;57.49
12949;BME280;6539;49.476;8.484;2023-02-16T13:07:44;101523.16;;;12.50;56.07
12949;BME280;6539;49.476;8.484;2023-02-16T13:13:26;101511.78;;;12.80;54.46
12949;BME280;6539;49.476;8.484;2023-02-16T13:16:00;101504.31;;;12.80;54.76
12949;BME280;6539;49.476;8.484;2023-02-16T13:18:38;101492.88;;;12.75;54.57
12949;BME280;6539;49.476;8.484;2023-02-16T13:21:34;101495.25;;;12.80;53.95
12949;BME280;6539;49.476;8.484;2023-02-16T13:33:38;101482.25;;;12.59;54.97
12949;BME280;6539;49.476;8.484;2023-02-16T13:36:39;101485.38;;;12.54;55.68
12949;BME280;6539;49.476;8.484;2023-02-16T13:39:59;101488.16;;;12.51;55.15
12949;BME280;6539;49.476;8.484;2023-02-16T13:45:29;101472.00;;;12.60;54.11
12949;BME280;6539;49.476;8.484;2023-02-16T13:47:58;101464.13;;;12.58;54.26
12949;BME280;6539;49.476;8.484;2023-02-16T13:50:30;101462.53;;;12.57;53.12
12949;BME280;6539;49.476;8.484;2023-02-16T13:53:16;101458.22;;;12.60;53.28
12949;BME280;6539;49.476;8.484;2023-02-16T13:55:44;101455.88;;;12.69;52.65
12949;BME280;6539;49.476;8.484;2023-02-16T14:00:49;101451.53;;;12.89;52.45
12949;BME280;6539;49.476;8.484;2023-02-16T14:05:54;101454.28;;;12.92;51.54
12949;BME280;6539;49.476;8.484;2023-02-16T14:08:40;101453.94;;;13.05;51.43
12949;BME280;6539;49.476;8.484;2023-02-16T14:11:09;101446.81;;;13.07;51.30
12949;BME280;6539;49.476;8.484;2023-02-16T14:21:37;101436.19;;;13.13;50.03
12949;BME280;6539;49.476;8.484;2023-02-16T14:24:28;101436.97;;;13.06;50.10
12949;BME280;6539;49.476;8.484;2023-02-16T14:27:03;101435.41;;;13.05;50.04
12949;BME280;6539;49.476;8.484;2023-02-16T14:29:42;101425.16;;;13.02;49.85
12949;BME280;6539;49.476;8.484;2023-02-16T14:32:31;101436.94;;;12.92;50.26
12949;BME280;6539;49.476;8.484;2023-02-16T14:35:17;101428.69;;;12.92;50.05
12949;BME280;6539;49.476;8.484;2023-02-16T14:37:54;101424.38;;;12.91;49.64
12949;BME280;6539;49.476;8.484;2023-02-16T14:40:39;101439.31;;;12.90;49.93
12949;BME280;6539;49.476;8.484;2023-02-16T14:49:47;101436.59;;;12.83;50.46
12949;BME280;6539;49.476;8.484;2023-02-16T14:52:50;101439.75;;;12.85;50.57
12949;BME280;6539;49.476;8.484;2023-02-16T14:55:46;101440.13;;;12.80;50.95
12949;BME280;6539;49.476;8.484;2023-02-16T15:01:25;101434.63;;;12.80;51.01
12949;BME280;6539;49.476;8.484;2023-02-16T15:03:55;101433.44;;;12.84;50.92
12949;BME280;6539;49.476;8.484;2023-02-16T15:06:33;101428.31;;;12.83;50.90
12949;BME280;6539;49.476;8.484;2023-02-16T15:09:15;101420.03;;;12.86;50.95
12949;BME280;6539;49.476;8.484;2023-02-16T15:12:10;101438.53;;;12.86;51.25
12949;BME280;6539;49.476;8.484;2023-02-16T15:14:55;101442.88;;;12.87;51.34
12949;BME280;6539;49.476;8.484;2023-02-16T15:20:21;101435.78;;;12.86;51.40
12949;BME280;6539;49.476;8.484;2023-02-16T15:22:53;101430.69;;;12.81;52.02
12949;BME280;6539;49.476;8.484;2023-02-16T15:25:35;101429.88;;;12.77;52.06
12949;BME280;6539;49.476;8.484;2023-02-16T15:28:20;101435.78;;;12.79;52.17
12949;BME280;6539;49.476;8.484;2023-02-16T15:30:55;101431.47;;;12.74;52.38
12949;BME280;6539;49.476;8.484;2023-02-16T15:36:03;101436.19;;;12.70;52.90
12949;BME280;6539;49.476;8.484;2023-02-16T15:38:41;101439.34;;;12.76;52.98
12949;BME280;6539;49.476;8.484;2023-02-16T15:41:31;101433.06;;;12.72;52.72
12949;BME280;6539;49.476;8.484;2023-02-16T15:43:58;101429.13;;;12.69;52.95
12949;BME280;6539;49.476;8.484;2023-02-16T15:46:38;101429.13;;;12.66;53.10
12949;BME280;6539;49.476;8.484;2023-02-16T15:49:30;101428.34;;;12.65;53.56
12949;BME280;6539;49.476;8.484;2023-02-16T15:52:04;101422.44;;;12.63;53.41
12949;BME280;6539;49.476;8.484;2023-02-16T15:54:38;101420.47;;;12.57;53.51
12949;BME280;6539;49.476;8.484;2023-02-16T15:57:18;101424.38;;;12.56;53.72
12949;BME280;6539;49.476;8.484;2023-02-16T15:59:55;101416.13;;;12.59;53.82
12949;BME280;6539;49.476;8.484;2023-02-16T16:02:37;101417.31;;;12.58;54.19
12949;BME280;6539;49.476;8.484;2023-02-16T16:05:19;101414.16;;;12.53;54.31
12949;BME280;6539;49.476;8.484;2023-02-16T16:07:46;101419.69;;;12.53;54.59
12949;BME280;6539;49.476;8.484;2023-02-16T16:13:00;101403.16;;;12.53;54.69
12949;BME280;6539;49.476;8.484;2023-02-16T16:15:29;101402.75;;;12.51;54.60
12949;BME280;6539;49.476;8.484;2023-02-16T16:17:57;101413.34;;;12.49;54.69
12949;BME280;6539;49.476;8.484;2023-02-16T16:20:35;101414.56;;;12.48;55.11
12949;BME280;6539;49.476;8.484;2023-02-16T16:23:28;101411.81;;;12.44;55.10
12949;BME280;6539;49.476;8.484;2023-02-16T16:25:58;101417.69;;;12.43;55.37
12949;BME280;6539;49.476;8.484;2023-02-16T16:31:31;101411.78;;;12.34;55.83
12949;BME280;6539;49.476;8.484;2023-02-16T16:36:52;101423.19;;;12.29;56.52
12949;BME280;6539;49.476;8.484;2023-02-16T16:39:29;101426.72;;;12.25;56.69
12949;BME280;6539;49.476;8.484;2023-02-16T16:42:19;101434.59;;;12.23;57.03
12949;BME280;6539;49.476;8.484;2023-02-16T16:45:04;101427.88;;;12.21;57.23
12949;BME280;6539;49.476;8.484;2023-02-16T16:47:38;101438.91;;;12.17;57.78
12949;BME280;6539;49.476;8.484;2023-02-16T16:50:31;101436.91;;;12.14;57.95
12949;BME280;6539;49.476;8.484;2023-02-16T16:53:01;101437.72;;;12.11;58.17
12949;BME280;6539;49.476;8.484;2023-02-16T16:55:31;101432.97;;;12.08;58.67
12949;BME280;6539;49.476;8.484;2023-02-16T16:58:04;101427.47;;;12.08;59.38
12949;BME280;6539;49.476;8.484;2023-02-16T17:00:35;101430.63;;;12.07;59.84
12949;BME280;6539;49.476;8.484;2023-02-16T17:03:03;101440.84;;;12.06;59.87
12949;BME280;6539;49.476;8.484;2023-02-16T17:05:33;101442.44;;;12.07;60.54
12949;BME280;6539;49.476;8.484;2023-02-16T17:07:59;101437.69;;;12.04;60.78
12949;BME280;6539;49.476;8.484;2023-02-16T17:10:27;101434.53;;;12.02;60.89
12949;BME280;6539;49.476;8.484;2023-02-16T17:12:57;101443.97;;;12.01;61.31
12949;BME280;6539;49.476;8.484;2023-02-16T17:15:36;101442.41;;;12.00;61.43
12949;BME280;6539;49.476;8.484;2023-02-16T17:18:05;101452.22;;;11.98;61.83
12949;BME280;6539;49.476;8.484;2023-02-16T17:20:34;101439.63;;;11.97;62.10
12949;BME280;6539;49.476;8.484;2023-02-16T17:23:02;101456.53;;;11.95;63.15
12949;BME280;6539;49.476;8.484;2023-02-16T17:25:37;101440.41;;;11.94;63.40
12949;BME280;6539;49.476;8.484;2023-02-16T17:28:08;101439.63;;;11.93;64.11
12949;BME280;6539;49.476;8.484;2023-02-16T17:30:37;101445.94;;;11.90;65.64
12949;BME280;6539;49.476;8.484;2023-02-16T17:33:05;101431.38;;;11.90;65.75
12949;BME280;6539;49.476;8.484;2023-02-16T17:35:37;101432.94;;;11.87;66.96
12949;BME280;6539;49.476;8.484;2023-02-16T17:38:12;101437.63;;;11.87;67.47
12949;BME280;6539;49.476;8.484;2023-02-16T17:40:39;101431.75;;;11.85;67.76
12949;BME280;6539;49.476;8.484;2023-02-16T17:43:16;101421.94;;;11.87;68.09
12949;BME280;6539;49.476;8.484;2023-02-16T17:45:46;101428.22;;;11.88;68.10
12949;BME280;6539;49.476;8.484;2023-02-16T17:48:23;101436.44;;;11.84;68.65
12949;BME280;6539;49.476;8.484;2023-02-16T17:50:49;101435.25;;;11.82;68.75
12949;BME280;6539;49.476;8.484;2023-02-16T17:53:20;101437.59;;;11.80;69.15
12949;BME280;6539;49.476;8.484;2023-02-16T17:55:54;101445.84;;;11.76;69.55
12949;BME280;6539;49.476;8.484;2023-02-16T17:58:22;101451.75;;;11.75;69.33
12949;BME280;6539;49.476;8.484;2023-02-16T18:00:54;101450.97;;;11.74;70.25
12949;BME280;6539;49.476;8.484;2023-02-16T18:03:22;101445.47;;;11.71;70.11
12949;BME280;6539;49.476;8.484;2023-02-16T18:05:50;101454.47;;;11.71;70.10
12949;BME280;6539;49.476;8.484;2023-02-16T18:08:18;101444.66;;;11.70;70.32
12949;BME280;6539;49.476;8.484;2023-02-16T18:10:50;101451.72;;;11.71;69.98